Walker, Kentucky
Current Conditions -  °F | °C
As of 9:35 PM on Saturday 20 Dec 2014 (Local Time) from K1A6 Reporting Station
Clear Clear  
Wind Chill: 33°   Ceiling: Unl
Heat Index: 33°   Visibility: 10mi
Dew Point: 30°   Wind: 0mph
Humidity: 90%   Direction: NA
Pressure: 30.25"   Gusts: NA
Location:  36.89°N, 83.71°W
Report Text: K1A6 210235Z AUTO 00000KT 10SM CLR 00/M01 A3025 RMK AO2 T00031011
Loading
Personal Weather Stations






























Interactive Weather Map New forecast layout! Learn more

10-Day Weather Forecast

Advertisements
Track Severe Weather on mobile